sensor_id;sensor_type;location;lat;lon;timestamp;P1;durP1;ratioP1;P2;durP2;ratioP2
33266;SDS011;19638;49.080;11.896;2022-09-25T00:03:07;810.08;;;79.72;;
33266;SDS011;19638;49.080;11.896;2022-09-25T00:07:11;642.30;;;70.65;;
33266;SDS011;19638;49.080;11.896;2022-09-25T00:11:15;460.75;;;62.08;;
33266;SDS011;19638;49.080;11.896;2022-09-25T00:15:21;1158.68;;;97.85;;
33266;SDS011;19638;49.080;11.896;2022-09-25T00:19:24;531.83;;;66.07;;
33266;SDS011;19638;49.080;11.896;2022-09-25T00:23:45;745.75;;;74.05;;
33266;SDS011;19638;49.080;11.896;2022-09-25T00:27:50;1080.10;;;95.55;;
33266;SDS011;19638;49.080;11.896;2022-09-25T00:31:57;1029.78;;;88.53;;
33266;SDS011;19638;49.080;11.896;2022-09-25T00:36:00;1119.88;;;92.90;;
33266;SDS011;19638;49.080;11.896;2022-09-25T00:40:05;1329.35;;;105.30;;
33266;SDS011;19638;49.080;11.896;2022-09-25T00:49:00;1279.93;;;109.55;;
33266;SDS011;19638;49.080;11.896;2022-09-25T00:53:06;1516.28;;;114.10;;
33266;SDS011;19638;49.080;11.896;2022-09-25T00:57:13;868.20;;;91.97;;
33266;SDS011;19638;49.080;11.896;2022-09-25T01:01:20;682.58;;;76.88;;
33266;SDS011;19638;49.080;11.896;2022-09-25T01:05:25;1087.80;;;99.28;;
33266;SDS011;19638;49.080;11.896;2022-09-25T01:09:31;1053.60;;;96.72;;
33266;SDS011;19638;49.080;11.896;2022-09-25T01:13:34;436.98;;;58.60;;
33266;SDS011;19638;49.080;11.896;2022-09-25T01:17:40;840.25;;;76.97;;
33266;SDS011;19638;49.080;11.896;2022-09-25T01:21:52;852.85;;;79.05;;
33266;SDS011;19638;49.080;11.896;2022-09-25T01:26:03;858.47;;;78.55;;
33266;SDS011;19638;49.080;11.896;2022-09-25T01:30:22;723.83;;;71.65;;
33266;SDS011;19638;49.080;11.896;2022-09-25T01:34:27;1189.55;;;91.43;;
33266;SDS011;19638;49.080;11.896;2022-09-25T01:38:37;832.20;;;73.97;;
33266;SDS011;19638;49.080;11.896;2022-09-25T01:42:50;1216.57;;;89.65;;
33266;SDS011;19638;49.080;11.896;2022-09-25T01:47:01;1244.10;;;87.88;;
33266;SDS011;19638;49.080;11.896;2022-09-25T01:51:25;1278.40;;;89.55;;
33266;SDS011;19638;49.080;11.896;2022-09-25T01:55:31;1375.20;;;94.07;;
33266;SDS011;19638;49.080;11.896;2022-09-25T01:59:40;796.40;;;72.18;;
33266;SDS011;19638;49.080;11.896;2022-09-25T02:03:50;609.00;;;63.25;;
33266;SDS011;19638;49.080;11.896;2022-09-25T02:07:59;671.45;;;66.13;;
33266;SDS011;19638;49.080;11.896;2022-09-25T02:12:06;475.85;;;54.95;;
33266;SDS011;19638;49.080;11.896;2022-09-25T02:16:15;631.80;;;62.35;;
33266;SDS011;19638;49.080;11.896;2022-09-25T02:20:21;423.65;;;55.58;;
33266;SDS011;19638;49.080;11.896;2022-09-25T02:24:37;440.88;;;55.03;;
33266;SDS011;19638;49.080;11.896;2022-09-25T02:28:45;381.88;;;51.72;;
33266;SDS011;19638;49.080;11.896;2022-09-25T02:32:49;382.55;;;52.53;;
33266;SDS011;19638;49.080;11.896;2022-09-25T02:36:53;463.02;;;54.40;;
33266;SDS011;19638;49.080;11.896;2022-09-25T02:40:59;516.10;;;57.45;;
33266;SDS011;19638;49.080;11.896;2022-09-25T02:45:14;498.10;;;55.92;;
33266;SDS011;19638;49.080;11.896;2022-09-25T02:49:34;418.30;;;54.33;;
33266;SDS011;19638;49.080;11.896;2022-09-25T02:53:44;524.58;;;56.35;;
33266;SDS011;19638;49.080;11.896;2022-09-25T02:57:53;372.90;;;48.80;;
33266;SDS011;19638;49.080;11.896;2022-09-25T03:01:59;508.80;;;53.35;;
33266;SDS011;19638;49.080;11.896;2022-09-25T03:06:04;492.40;;;53.95;;
33266;SDS011;19638;49.080;11.896;2022-09-25T03:10:10;420.58;;;47.25;;
33266;SDS011;19638;49.080;11.896;2022-09-25T03:14:14;283.10;;;43.47;;
33266;SDS011;19638;49.080;11.896;2022-09-25T03:18:17;282.77;;;40.08;;
33266;SDS011;19638;49.080;11.896;2022-09-25T03:22:20;230.02;;;37.90;;
33266;SDS011;19638;49.080;11.896;2022-09-25T03:26:25;242.95;;;38.75;;
33266;SDS011;19638;49.080;11.896;2022-09-25T03:30:29;239.80;;;38.97;;
33266;SDS011;19638;49.080;11.896;2022-09-25T03:34:32;243.38;;;39.60;;
33266;SDS011;19638;49.080;11.896;2022-09-25T03:38:35;210.40;;;36.80;;
33266;SDS011;19638;49.080;11.896;2022-09-25T03:42:40;255.23;;;37.53;;
33266;SDS011;19638;49.080;11.896;2022-09-25T03:46:44;246.88;;;39.25;;
33266;SDS011;19638;49.080;11.896;2022-09-25T03:50:47;218.55;;;36.03;;
33266;SDS011;19638;49.080;11.896;2022-09-25T03:54:51;279.52;;;39.80;;
33266;SDS011;19638;49.080;11.896;2022-09-25T03:58:55;292.88;;;40.33;;
33266;SDS011;19638;49.080;11.896;2022-09-25T04:02:59;291.80;;;41.47;;
33266;SDS011;19638;49.080;11.896;2022-09-25T04:07:02;264.35;;;37.95;;
33266;SDS011;19638;49.080;11.896;2022-09-25T04:11:06;236.85;;;39.05;;
33266;SDS011;19638;49.080;11.896;2022-09-25T04:15:11;266.17;;;40.80;;
33266;SDS011;19638;49.080;11.896;2022-09-25T04:19:14;221.07;;;37.33;;
33266;SDS011;19638;49.080;11.896;2022-09-25T04:23:17;263.10;;;39.35;;
33266;SDS011;19638;49.080;11.896;2022-09-25T04:27:21;278.33;;;40.53;;
33266;SDS011;19638;49.080;11.896;2022-09-25T04:31:26;272.58;;;39.85;;
33266;SDS011;19638;49.080;11.896;2022-09-25T04:35:29;240.98;;;37.15;;
33266;SDS011;19638;49.080;11.896;2022-09-25T04:39:33;239.18;;;39.03;;
33266;SDS011;19638;49.080;11.896;2022-09-25T04:43:35;252.45;;;38.40;;
33266;SDS011;19638;49.080;11.896;2022-09-25T04:47:41;348.73;;;41.97;;
33266;SDS011;19638;49.080;11.896;2022-09-25T04:51:44;271.00;;;39.42;;
33266;SDS011;19638;49.080;11.896;2022-09-25T04:55:47;279.33;;;39.45;;
33266;SDS011;19638;49.080;11.896;2022-09-25T04:59:50;448.38;;;49.10;;
33266;SDS011;19638;49.080;11.896;2022-09-25T05:03:55;387.20;;;46.42;;
33266;SDS011;19638;49.080;11.896;2022-09-25T05:07:59;453.85;;;49.78;;
33266;SDS011;19638;49.080;11.896;2022-09-25T05:12:03;491.92;;;51.58;;
33266;SDS011;19638;49.080;11.896;2022-09-25T05:16:08;466.33;;;50.28;;
33266;SDS011;19638;49.080;11.896;2022-09-25T05:20:12;413.45;;;44.75;;
33266;SDS011;19638;49.080;11.896;2022-09-25T05:24:16;472.77;;;49.15;;
33266;SDS011;19638;49.080;11.896;2022-09-25T05:28:19;578.40;;;51.60;;
33266;SDS011;19638;49.080;11.896;2022-09-25T05:32:24;570.78;;;51.58;;
33266;SDS011;19638;49.080;11.896;2022-09-25T05:36:28;407.13;;;44.50;;
33266;SDS011;19638;49.080;11.896;2022-09-25T05:40:31;506.83;;;48.17;;
33266;SDS011;19638;49.080;11.896;2022-09-25T05:44:34;475.75;;;47.20;;
33266;SDS011;19638;49.080;11.896;2022-09-25T05:48:40;483.42;;;47.83;;
33266;SDS011;19638;49.080;11.896;2022-09-25T05:52:44;330.70;;;42.13;;
33266;SDS011;19638;49.080;11.896;2022-09-25T05:56:57;479.27;;;45.88;;
33266;SDS011;19638;49.080;11.896;2022-09-25T06:21:46;409.50;;;44.95;;
33266;SDS011;19638;49.080;11.896;2022-09-25T06:26:03;427.60;;;47.25;;
33266;SDS011;19638;49.080;11.896;2022-09-25T06:30:13;395.45;;;43.28;;
33266;SDS011;19638;49.080;11.896;2022-09-25T06:34:23;638.17;;;56.00;;
33266;SDS011;19638;49.080;11.896;2022-09-25T06:38:36;502.20;;;49.00;;
33266;SDS011;19638;49.080;11.896;2022-09-25T06:42:46;830.20;;;63.20;;
33266;SDS011;19638;49.080;11.896;2022-09-25T06:46:53;588.72;;;52.78;;
33266;SDS011;19638;49.080;11.896;2022-09-25T06:51:03;1002.72;;;73.05;;
33266;SDS011;19638;49.080;11.896;2022-09-25T06:55:17;474.05;;;55.17;;
33266;SDS011;19638;49.080;11.896;2022-09-25T06:59:26;596.30;;;58.45;;
33266;SDS011;19638;49.080;11.896;2022-09-25T07:03:36;524.10;;;53.42;;
33266;SDS011;19638;49.080;11.896;2022-09-25T07:07:56;397.60;;;50.65;;
33266;SDS011;19638;49.080;11.896;2022-09-25T07:12:08;320.55;;;47.97;;
33266;SDS011;19638;49.080;11.896;2022-09-25T07:16:18;254.73;;;44.25;;
33266;SDS011;19638;49.080;11.896;2022-09-25T07:20:29;206.32;;;42.60;;
33266;SDS011;19638;49.080;11.896;2022-09-25T07:24:45;182.27;;;40.58;;
33266;SDS011;19638;49.080;11.896;2022-09-25T07:28:56;190.50;;;38.63;;
33266;SDS011;19638;49.080;11.896;2022-09-25T07:33:07;164.45;;;36.45;;
33266;SDS011;19638;49.080;11.896;2022-09-25T07:37:17;224.95;;;40.33;;
33266;SDS011;19638;49.080;11.896;2022-09-25T07:41:27;176.95;;;39.60;;
33266;SDS011;19638;49.080;11.896;2022-09-25T07:45:39;164.65;;;39.17;;
33266;SDS011;19638;49.080;11.896;2022-09-25T07:49:44;150.55;;;36.58;;
33266;SDS011;19638;49.080;11.896;2022-09-25T07:53:54;144.57;;;35.88;;
33266;SDS011;19638;49.080;11.896;2022-09-25T07:57:57;145.48;;;36.70;;
33266;SDS011;19638;49.080;11.896;2022-09-25T08:02:09;150.63;;;37.30;;
33266;SDS011;19638;49.080;11.896;2022-09-25T08:06:19;135.65;;;35.97;;
33266;SDS011;19638;49.080;11.896;2022-09-25T08:10:28;131.20;;;45.13;;
33266;SDS011;19638;49.080;11.896;2022-09-25T08:14:38;119.45;;;37.45;;
33266;SDS011;19638;49.080;11.896;2022-09-25T08:18:50;106.80;;;34.25;;
33266;SDS011;19638;49.080;11.896;2022-09-25T08:23:00;105.60;;;33.95;;
33266;SDS011;19638;49.080;11.896;2022-09-25T08:27:10;107.50;;;39.75;;
33266;SDS011;19638;49.080;11.896;2022-09-25T08:31:19;115.15;;;36.10;;
33266;SDS011;19638;49.080;11.896;2022-09-25T08:35:31;104.00;;;34.20;;
33266;SDS011;19638;49.080;11.896;2022-09-25T08:39:40;101.93;;;32.95;;
33266;SDS011;19638;49.080;11.896;2022-09-25T08:43:53;97.15;;;32.17;;
33266;SDS011;19638;49.080;11.896;2022-09-25T08:48:06;109.38;;;34.58;;
33266;SDS011;19638;49.080;11.896;2022-09-25T08:52:40;112.38;;;36.40;;
33266;SDS011;19638;49.080;11.896;2022-09-25T08:56:52;122.63;;;36.03;;
33266;SDS011;19638;49.080;11.896;2022-09-25T09:01:04;102.00;;;34.47;;
33266;SDS011;19638;49.080;11.896;2022-09-25T09:05:13;102.50;;;34.75;;
33266;SDS011;19638;49.080;11.896;2022-09-25T09:09:27;93.22;;;33.05;;
33266;SDS011;19638;49.080;11.896;2022-09-25T09:13:41;89.70;;;33.67;;
33266;SDS011;19638;49.080;11.896;2022-09-25T09:17:56;91.10;;;31.70;;
33266;SDS011;19638;49.080;11.896;2022-09-25T09:22:09;79.47;;;30.83;;
33266;SDS011;19638;49.080;11.896;2022-09-25T09:26:30;73.43;;;30.20;;
33266;SDS011;19638;49.080;11.896;2022-09-25T09:30:54;71.05;;;28.05;;
33266;SDS011;19638;49.080;11.896;2022-09-25T09:35:14;67.57;;;28.95;;
33266;SDS011;19638;49.080;11.896;2022-09-25T09:39:35;65.70;;;28.60;;
33266;SDS011;19638;49.080;11.896;2022-09-25T09:43:52;61.85;;;26.30;;
33266;SDS011;19638;49.080;11.896;2022-09-25T09:48:12;47.00;;;22.25;;
33266;SDS011;19638;49.080;11.896;2022-09-25T09:52:27;45.28;;;23.02;;
33266;SDS011;19638;49.080;11.896;2022-09-25T09:56:41;41.88;;;21.60;;
33266;SDS011;19638;49.080;11.896;2022-09-25T10:00:56;40.88;;;20.58;;
33266;SDS011;19638;49.080;11.896;2022-09-25T10:05:27;34.10;;;18.40;;
33266;SDS011;19638;49.080;11.896;2022-09-25T10:09:38;31.88;;;17.42;;
33266;SDS011;19638;49.080;11.896;2022-09-25T10:13:48;35.13;;;18.60;;
33266;SDS011;19638;49.080;11.896;2022-09-25T10:18:00;38.20;;;19.52;;
33266;SDS011;19638;49.080;11.896;2022-09-25T10:22:13;36.25;;;18.88;;
33266;SDS011;19638;49.080;11.896;2022-09-25T10:26:25;32.50;;;18.77;;
33266;SDS011;19638;49.080;11.896;2022-09-25T10:30:43;38.47;;;20.05;;
33266;SDS011;19638;49.080;11.896;2022-09-25T10:34:56;30.20;;;16.88;;
33266;SDS011;19638;49.080;11.896;2022-09-25T10:38:59;23.48;;;14.43;;
33266;SDS011;19638;49.080;11.896;2022-09-25T10:43:30;33.15;;;20.15;;
33266;SDS011;19638;49.080;11.896;2022-09-25T10:47:40;27.83;;;15.68;;
33266;SDS011;19638;49.080;11.896;2022-09-25T10:52:05;20.38;;;13.65;;
33266;SDS011;19638;49.080;11.896;2022-09-25T10:56:17;19.88;;;12.75;;
33266;SDS011;19638;49.080;11.896;2022-09-25T11:00:28;19.00;;;13.35;;
33266;SDS011;19638;49.080;11.896;2022-09-25T11:04:39;18.67;;;12.32;;
33266;SDS011;19638;49.080;11.896;2022-09-25T11:08:48;19.10;;;11.82;;
33266;SDS011;19638;49.080;11.896;2022-09-25T11:13:05;20.30;;;13.55;;
33266;SDS011;19638;49.080;11.896;2022-09-25T11:21:41;19.98;;;12.80;;
33266;SDS011;19638;49.080;11.896;2022-09-25T11:26:06;21.00;;;13.38;;
33266;SDS011;19638;49.080;11.896;2022-09-25T11:30:15;20.00;;;12.98;;
33266;SDS011;19638;49.080;11.896;2022-09-25T11:34:35;19.60;;;13.73;;
33266;SDS011;19638;49.080;11.896;2022-09-25T11:38:55;20.35;;;13.80;;
33266;SDS011;19638;49.080;11.896;2022-09-25T11:43:32;23.60;;;15.63;;
33266;SDS011;19638;49.080;11.896;2022-09-25T11:47:58;22.60;;;15.35;;
33266;SDS011;19638;49.080;11.896;2022-09-25T11:52:18;30.48;;;19.90;;
33266;SDS011;19638;49.080;11.896;2022-09-25T11:56:32;20.90;;;13.43;;
33266;SDS011;19638;49.080;11.896;2022-09-25T12:00:53;21.90;;;15.48;;
33266;SDS011;19638;49.080;11.896;2022-09-25T12:05:05;20.88;;;13.60;;
33266;SDS011;19638;49.080;11.896;2022-09-25T12:09:34;18.58;;;13.30;;
33266;SDS011;19638;49.080;11.896;2022-09-25T12:13:56;16.95;;;11.98;;
33266;SDS011;19638;49.080;11.896;2022-09-25T12:18:16;17.38;;;11.35;;
33266;SDS011;19638;49.080;11.896;2022-09-25T12:22:38;17.05;;;11.90;;
33266;SDS011;19638;49.080;11.896;2022-09-25T12:27:04;13.15;;;10.07;;
33266;SDS011;19638;49.080;11.896;2022-09-25T12:31:15;13.90;;;9.88;;
33266;SDS011;19638;49.080;11.896;2022-09-25T12:35:41;14.68;;;9.77;;
33266;SDS011;19638;49.080;11.896;2022-09-25T12:39:57;17.45;;;11.90;;
33266;SDS011;19638;49.080;11.896;2022-09-25T12:44:10;19.02;;;12.38;;
33266;SDS011;19638;49.080;11.896;2022-09-25T12:48:23;23.48;;;15.60;;
33266;SDS011;19638;49.080;11.896;2022-09-25T12:52:41;34.40;;;20.38;;
33266;SDS011;19638;49.080;11.896;2022-09-25T12:56:57;24.90;;;15.68;;
33266;SDS011;19638;49.080;11.896;2022-09-25T13:01:11;23.90;;;14.68;;
33266;SDS011;19638;49.080;11.896;2022-09-25T13:05:28;25.08;;;16.20;;
33266;SDS011;19638;49.080;11.896;2022-09-25T13:09:43;17.58;;;12.05;;
33266;SDS011;19638;49.080;11.896;2022-09-25T13:13:54;20.77;;;13.65;;
33266;SDS011;19638;49.080;11.896;2022-09-25T13:18:06;21.30;;;14.20;;
33266;SDS011;19638;49.080;11.896;2022-09-25T13:22:33;25.67;;;15.35;;
33266;SDS011;19638;49.080;11.896;2022-09-25T13:26:59;22.33;;;14.82;;
33266;SDS011;19638;49.080;11.896;2022-09-25T13:31:19;23.52;;;16.13;;
33266;SDS011;19638;49.080;11.896;2022-09-25T13:35:24;23.55;;;16.30;;
33266;SDS011;19638;49.080;11.896;2022-09-25T13:39:35;22.92;;;16.38;;
33266;SDS011;19638;49.080;11.896;2022-09-25T13:48:46;25.60;;;15.88;;
33266;SDS011;19638;49.080;11.896;2022-09-25T13:53:09;22.92;;;15.88;;
33266;SDS011;19638;49.080;11.896;2022-09-25T14:07:03;27.92;;;17.70;;
33266;SDS011;19638;49.080;11.896;2022-09-25T14:11:20;26.42;;;17.95;;
33266;SDS011;19638;49.080;11.896;2022-09-25T14:15:35;27.52;;;17.45;;
33266;SDS011;19638;49.080;11.896;2022-09-25T14:19:42;27.90;;;17.42;;
33266;SDS011;19638;49.080;11.896;2022-09-25T14:23:57;24.65;;;16.05;;
33266;SDS011;19638;49.080;11.896;2022-09-25T14:28:27;21.25;;;15.25;;
33266;SDS011;19638;49.080;11.896;2022-09-25T14:32:45;23.73;;;15.55;;
33266;SDS011;19638;49.080;11.896;2022-09-25T14:37:08;21.80;;;15.27;;
33266;SDS011;19638;49.080;11.896;2022-09-25T14:41:46;21.17;;;14.63;;
33266;SDS011;19638;49.080;11.896;2022-09-25T14:46:13;24.20;;;15.18;;
33266;SDS011;19638;49.080;11.896;2022-09-25T14:50:27;21.20;;;14.00;;
33266;SDS011;19638;49.080;11.896;2022-09-25T14:54:41;24.10;;;14.98;;
33266;SDS011;19638;49.080;11.896;2022-09-25T14:58:50;21.50;;;14.30;;
33266;SDS011;19638;49.080;11.896;2022-09-25T15:03:03;27.70;;;15.60;;
33266;SDS011;19638;49.080;11.896;2022-09-25T15:07:22;22.38;;;15.35;;
33266;SDS011;19638;49.080;11.896;2022-09-25T15:11:42;20.90;;;14.05;;
33266;SDS011;19638;49.080;11.896;2022-09-25T15:15:47;59.63;;;38.67;;
33266;SDS011;19638;49.080;11.896;2022-09-25T15:20:19;58.92;;;52.50;;
33266;SDS011;19638;49.080;11.896;2022-09-25T15:24:25;36.75;;;25.38;;
33266;SDS011;19638;49.080;11.896;2022-09-25T15:28:37;256.30;;;174.95;;
33266;SDS011;19638;49.080;11.896;2022-09-25T15:32:51;117.78;;;71.22;;
33266;SDS011;19638;49.080;11.896;2022-09-25T15:37:06;35.53;;;23.52;;
33266;SDS011;19638;49.080;11.896;2022-09-25T15:41:27;39.53;;;27.10;;
33266;SDS011;19638;49.080;11.896;2022-09-25T15:45:39;35.45;;;22.80;;
33266;SDS011;19638;49.080;11.896;2022-09-25T15:49:53;29.25;;;19.35;;
33266;SDS011;19638;49.080;11.896;2022-09-25T15:53:58;78.47;;;62.42;;
33266;SDS011;19638;49.080;11.896;2022-09-25T15:58:11;162.95;;;129.10;;
33266;SDS011;19638;49.080;11.896;2022-09-25T16:02:21;150.45;;;133.10;;
33266;SDS011;19638;49.080;11.896;2022-09-25T16:06:54;43.65;;;34.15;;
33266;SDS011;19638;49.080;11.896;2022-09-25T16:11:16;32.92;;;24.35;;
33266;SDS011;19638;49.080;11.896;2022-09-25T16:20:01;43.15;;;27.55;;
33266;SDS011;19638;49.080;11.896;2022-09-25T16:24:15;55.15;;;35.97;;
33266;SDS011;19638;49.080;11.896;2022-09-25T16:28:28;25.55;;;15.48;;
33266;SDS011;19638;49.080;11.896;2022-09-25T16:32:48;29.48;;;17.83;;
33266;SDS011;19638;49.080;11.896;2022-09-25T16:37:17;82.47;;;48.97;;
33266;SDS011;19638;49.080;11.896;2022-09-25T16:41:30;28.90;;;16.10;;
33266;SDS011;19638;49.080;11.896;2022-09-25T16:45:39;22.55;;;13.93;;
33266;SDS011;19638;49.080;11.896;2022-09-25T16:50:07;24.75;;;14.80;;
33266;SDS011;19638;49.080;11.896;2022-09-25T16:54:17;23.30;;;14.23;;
33266;SDS011;19638;49.080;11.896;2022-09-25T16:58:30;25.13;;;14.85;;
33266;SDS011;19638;49.080;11.896;2022-09-25T17:02:40;27.15;;;15.30;;
33266;SDS011;19638;49.080;11.896;2022-09-25T17:06:52;29.52;;;15.23;;
33266;SDS011;19638;49.080;11.896;2022-09-25T17:10:56;27.63;;;16.02;;
33266;SDS011;19638;49.080;11.896;2022-09-25T17:15:08;26.58;;;15.23;;
33266;SDS011;19638;49.080;11.896;2022-09-25T17:19:26;28.95;;;16.25;;
33266;SDS011;19638;49.080;11.896;2022-09-25T17:23:36;47.03;;;25.63;;
33266;SDS011;19638;49.080;11.896;2022-09-25T17:27:46;35.40;;;22.10;;
33266;SDS011;19638;49.080;11.896;2022-09-25T17:32:04;38.65;;;22.25;;
33266;SDS011;19638;49.080;11.896;2022-09-25T17:36:15;26.52;;;15.18;;
33266;SDS011;19638;49.080;11.896;2022-09-25T17:40:19;30.48;;;15.93;;
33266;SDS011;19638;49.080;11.896;2022-09-25T17:44:29;36.88;;;17.98;;
33266;SDS011;19638;49.080;11.896;2022-09-25T17:48:40;29.27;;;15.65;;
33266;SDS011;19638;49.080;11.896;2022-09-25T17:52:43;34.97;;;17.42;;
33266;SDS011;19638;49.080;11.896;2022-09-25T17:56:53;32.63;;;17.25;;
33266;SDS011;19638;49.080;11.896;2022-09-25T18:01:03;38.00;;;18.08;;
33266;SDS011;19638;49.080;11.896;2022-09-25T18:05:15;36.72;;;17.75;;
33266;SDS011;19638;49.080;11.896;2022-09-25T18:09:25;37.13;;;19.38;;
33266;SDS011;19638;49.080;11.896;2022-09-25T18:13:35;38.97;;;20.35;;
33266;SDS011;19638;49.080;11.896;2022-09-25T18:17:42;45.10;;;21.13;;
33266;SDS011;19638;49.080;11.896;2022-09-25T18:21:53;42.28;;;20.17;;
33266;SDS011;19638;49.080;11.896;2022-09-25T18:26:26;39.10;;;18.52;;
33266;SDS011;19638;49.080;11.896;2022-09-25T18:30:32;46.50;;;20.45;;
33266;SDS011;19638;49.080;11.896;2022-09-25T18:34:45;40.28;;;20.05;;
33266;SDS011;19638;49.080;11.896;2022-09-25T18:38:56;49.33;;;20.70;;
33266;SDS011;19638;49.080;11.896;2022-09-25T18:43:05;48.60;;;21.00;;
33266;SDS011;19638;49.080;11.896;2022-09-25T18:47:15;34.33;;;17.10;;
33266;SDS011;19638;49.080;11.896;2022-09-25T18:51:25;34.78;;;16.77;;
33266;SDS011;19638;49.080;11.896;2022-09-25T18:55:37;34.67;;;17.50;;
33266;SDS011;19638;49.080;11.896;2022-09-25T18:59:48;31.83;;;15.48;;
33266;SDS011;19638;49.080;11.896;2022-09-25T19:03:51;38.17;;;16.60;;
33266;SDS011;19638;49.080;11.896;2022-09-25T19:08:01;39.88;;;18.30;;
33266;SDS011;19638;49.080;11.896;2022-09-25T19:12:13;38.42;;;17.80;;
33266;SDS011;19638;49.080;11.896;2022-09-25T19:16:18;30.65;;;15.82;;
33266;SDS011;19638;49.080;11.896;2022-09-25T19:20:32;35.97;;;17.13;;
33266;SDS011;19638;49.080;11.896;2022-09-25T19:24:42;36.15;;;16.33;;
33266;SDS011;19638;49.080;11.896;2022-09-25T19:29:01;39.05;;;18.42;;
33266;SDS011;19638;49.080;11.896;2022-09-25T19:33:11;38.00;;;16.88;;
33266;SDS011;19638;49.080;11.896;2022-09-25T19:37:14;32.88;;;15.93;;
33266;SDS011;19638;49.080;11.896;2022-09-25T19:41:25;34.90;;;16.70;;
33266;SDS011;19638;49.080;11.896;2022-09-25T19:45:37;35.50;;;16.88;;
33266;SDS011;19638;49.080;11.896;2022-09-25T19:49:40;36.83;;;16.42;;
33266;SDS011;19638;49.080;11.896;2022-09-25T19:53:50;36.47;;;16.45;;
33266;SDS011;19638;49.080;11.896;2022-09-25T19:58:01;39.78;;;15.85;;
33266;SDS011;19638;49.080;11.896;2022-09-25T20:02:13;40.92;;;16.50;;
33266;SDS011;19638;49.080;11.896;2022-09-25T20:06:16;35.10;;;15.75;;
33266;SDS011;19638;49.080;11.896;2022-09-25T20:10:25;33.00;;;15.30;;
33266;SDS011;19638;49.080;11.896;2022-09-25T20:14:36;37.55;;;15.27;;
33266;SDS011;19638;49.080;11.896;2022-09-25T20:18:48;40.22;;;16.63;;
33266;SDS011;19638;49.080;11.896;2022-09-25T20:22:59;33.67;;;15.50;;
33266;SDS011;19638;49.080;11.896;2022-09-25T20:27:16;35.88;;;16.42;;
33266;SDS011;19638;49.080;11.896;2022-09-25T20:31:26;34.97;;;15.93;;
33266;SDS011;19638;49.080;11.896;2022-09-25T20:35:31;36.80;;;17.42;;
33266;SDS011;19638;49.080;11.896;2022-09-25T20:39:42;41.63;;;18.25;;
33266;SDS011;19638;49.080;11.896;2022-09-25T20:43:52;37.00;;;17.08;;
33266;SDS011;19638;49.080;11.896;2022-09-25T20:48:03;34.78;;;16.38;;
33266;SDS011;19638;49.080;11.896;2022-09-25T20:52:15;34.50;;;14.93;;
33266;SDS011;19638;49.080;11.896;2022-09-25T20:56:18;37.03;;;16.10;;
33266;SDS011;19638;49.080;11.896;2022-09-25T21:00:28;35.75;;;14.82;;
33266;SDS011;19638;49.080;11.896;2022-09-25T21:04:38;34.10;;;15.95;;
33266;SDS011;19638;49.080;11.896;2022-09-25T21:08:51;32.55;;;15.38;;
33266;SDS011;19638;49.080;11.896;2022-09-25T21:13:02;33.17;;;16.08;;
33266;SDS011;19638;49.080;11.896;2022-09-25T21:17:05;37.00;;;17.58;;
33266;SDS011;19638;49.080;11.896;2022-09-25T21:21:15;33.88;;;15.02;;
33266;SDS011;19638;49.080;11.896;2022-09-25T21:25:26;25.65;;;13.52;;
33266;SDS011;19638;49.080;11.896;2022-09-25T21:29:42;24.92;;;12.23;;
33266;SDS011;19638;49.080;11.896;2022-09-25T21:33:53;20.00;;;11.32;;
33266;SDS011;19638;49.080;11.896;2022-09-25T21:37:57;16.52;;;10.15;;
33266;SDS011;19638;49.080;11.896;2022-09-25T21:42:08;19.45;;;9.38;;
33266;SDS011;19638;49.080;11.896;2022-09-25T21:46:18;16.33;;;9.23;;
33266;SDS011;19638;49.080;11.896;2022-09-25T21:50:28;13.88;;;8.70;;
33266;SDS011;19638;49.080;11.896;2022-09-25T21:54:37;13.23;;;8.90;;
33266;SDS011;19638;49.080;11.896;2022-09-25T21:58:49;14.70;;;8.35;;
33266;SDS011;19638;49.080;11.896;2022-09-25T22:03:08;11.30;;;8.38;;
33266;SDS011;19638;49.080;11.896;2022-09-25T22:07:18;12.18;;;8.00;;
33266;SDS011;19638;49.080;11.896;2022-09-25T22:11:28;10.85;;;8.00;;
33266;SDS011;19638;49.080;11.896;2022-09-25T22:15:39;11.93;;;7.32;;
33266;SDS011;19638;49.080;11.896;2022-09-25T22:19:48;8.38;;;6.90;;
33266;SDS011;19638;49.080;11.896;2022-09-25T22:24:11;8.15;;;6.68;;
33266;SDS011;19638;49.080;11.896;2022-09-25T22:28:27;8.13;;;6.50;;
33266;SDS011;19638;49.080;11.896;2022-09-25T22:32:32;8.52;;;6.40;;
33266;SDS011;19638;49.080;11.896;2022-09-25T22:36:41;9.10;;;6.47;;
33266;SDS011;19638;49.080;11.896;2022-09-25T22:41:00;8.93;;;6.72;;
33266;SDS011;19638;49.080;11.896;2022-09-25T22:45:11;9.63;;;6.57;;
33266;SDS011;19638;49.080;11.896;2022-09-25T22:49:23;8.63;;;6.45;;
33266;SDS011;19638;49.080;11.896;2022-09-25T22:53:33;6.97;;;5.82;;
33266;SDS011;19638;49.080;11.896;2022-09-25T22:57:37;8.48;;;5.60;;
33266;SDS011;19638;49.080;11.896;2022-09-25T23:01:47;8.73;;;5.78;;
33266;SDS011;19638;49.080;11.896;2022-09-25T23:06:00;8.65;;;5.63;;
33266;SDS011;19638;49.080;11.896;2022-09-25T23:10:10;8.57;;;5.82;;
33266;SDS011;19638;49.080;11.896;2022-09-25T23:14:22;7.30;;;5.97;;
33266;SDS011;19638;49.080;11.896;2022-09-25T23:18:33;8.45;;;5.47;;
33266;SDS011;19638;49.080;11.896;2022-09-25T23:22:44;5.90;;;5.03;;
33266;SDS011;19638;49.080;11.896;2022-09-25T23:26:53;6.25;;;4.90;;
33266;SDS011;19638;49.080;11.896;2022-09-25T23:31:03;5.93;;;4.85;;
33266;SDS011;19638;49.080;11.896;2022-09-25T23:35:14;5.32;;;4.75;;
33266;SDS011;19638;49.080;11.896;2022-09-25T23:39:25;5.15;;;4.43;;
33266;SDS011;19638;49.080;11.896;2022-09-25T23:43:34;4.95;;;4.45;;
33266;SDS011;19638;49.080;11.896;2022-09-25T23:47:45;4.95;;;4.43;;
33266;SDS011;19638;49.080;11.896;2022-09-25T23:51:48;5.40;;;4.85;;
33266;SDS011;19638;49.080;11.896;2022-09-25T23:55:59;5.50;;;4.93;;
